Time;durP1;ratioP1;P1;durP2;ratioP2;P2;SDS_P1;SDS_P2;PMS_P1;PMS_P2;Temp;Humidity;BMP_temperature;BMP_pressure;BME280_temperature;BME280_humidity;BME280_pressure;Samples;Min_cycle;Max_cycle;Signal;HPM_P1;HPM_P2
2021/10/26 00:00:11;;;;;;;51.47;33.03;;;7.80;99.90;;;;;;4949729;28;20149;-67
2021/10/26 00:02:38;;;;;;;43.70;31.48;;;7.80;99.90;;;;;;4947476;28;20047;-64
2021/10/26 00:05:06;;;;;;;45.92;32.60;;;7.90;99.90;;;;;;4946793;28;20043;-72
2021/10/26 00:07:33;;;;;;;46.75;31.58;;;7.90;99.90;;;;;;4947172;28;20684;-65
2021/10/26 00:10:00;;;;;;;51.00;31.20;;;7.90;99.90;;;;;;4945591;28;20476;-67
2021/10/26 00:12:28;;;;;;;42.83;32.67;;;7.90;99.90;;;;;;4949029;28;20079;-68
2021/10/26 00:14:55;;;;;;;49.22;30.95;;;7.90;99.90;;;;;;4961447;28;20101;-68
2021/10/26 00:17:22;;;;;;;47.28;31.27;;;7.90;99.90;;;;;;4944211;28;20496;-67
2021/10/26 00:19:51;;;;;;;49.55;31.58;;;8.00;99.90;;;;;;4948202;28;20039;-70
2021/10/26 00:22:18;;;;;;;46.67;32.03;;;7.90;99.90;;;;;;4961954;28;20051;-65
2021/10/26 00:24:45;;;;;;;49.13;31.50;;;7.90;99.90;;;;;;4946962;28;20385;-65
2021/10/26 00:27:11;;;;;;;58.55;33.55;;;7.90;99.90;;;;;;4946599;28;20110;-70
2021/10/26 00:29:38;;;;;;;47.95;34.42;;;7.90;99.90;;;;;;4946061;28;20629;-67
2021/10/26 00:32:06;;;;;;;52.88;32.35;;;7.90;99.90;;;;;;4961948;28;20054;-67
2021/10/26 00:34:33;;;;;;;53.88;34.85;;;7.90;99.90;;;;;;4966383;28;20148;-71
2021/10/26 00:37:00;;;;;;;47.40;33.10;;;7.90;99.90;;;;;;4967359;28;20047;-68
2021/10/26 00:39:27;;;;;;;46.30;31.90;;;8.00;99.90;;;;;;4979710;28;20051;-67
2021/10/26 00:41:57;;;;;;;50.33;33.55;;;8.00;99.90;;;;;;4976262;28;20484;-68
2021/10/26 00:44:28;;;;;;;42.63;32.08;;;8.00;99.90;;;;;;4979419;28;20058;-63
2021/10/26 00:47:00;;;;;;;46.95;32.95;;;7.90;99.90;;;;;;4960091;28;20414;-64
2021/10/26 00:49:27;;;;;;;47.47;31.60;;;8.00;99.90;;;;;;4946300;28;20061;-67
2021/10/26 00:51:55;;;;;;;43.83;32.08;;;8.00;99.90;;;;;;4944220;28;20073;-65
2021/10/26 00:54:24;;;;;;;47.38;32.80;;;8.00;99.90;;;;;;4944944;28;20035;-64
2021/10/26 00:56:56;;;;;;;47.08;34.28;;;8.00;99.90;;;;;;4960113;28;20058;-64
2021/10/26 00:59:23;;;;;;;42.72;31.85;;;8.00;99.90;;;;;;4957990;28;20547;-64
2021/10/26 01:01:51;;;;;;;52.83;33.78;;;8.00;99.90;;;;;;4965025;28;20105;-71
2021/10/26 01:04:21;;;;;;;47.42;32.78;;;8.00;99.90;;;;;;4961936;28;20161;-64
2021/10/26 01:06:48;;;;;;;48.72;33.90;;;8.00;99.90;;;;;;4965618;28;20077;-65
2021/10/26 01:09:18;;;;;;;40.47;29.20;;;8.00;99.90;;;;;;4970155;28;20373;-64
2021/10/26 01:11:45;;;;;;;41.70;30.25;;;8.00;99.90;;;;;;4964001;28;20047;-65
2021/10/26 01:14:13;;;;;;;43.78;32.03;;;8.00;99.90;;;;;;4944042;28;20150;-65
2021/10/26 01:16:41;;;;;;;42.88;29.40;;;8.00;99.90;;;;;;4960537;28;20043;-68
2021/10/26 01:19:11;;;;;;;48.38;32.78;;;8.00;99.90;;;;;;4943754;28;20134;-66
2021/10/26 01:21:38;;;;;;;46.42;31.65;;;8.00;99.90;;;;;;4951762;28;20043;-71
2021/10/26 01:24:05;;;;;;;44.55;32.22;;;8.00;99.90;;;;;;4942913;28;20413;-68
2021/10/26 01:26:32;;;;;;;44.72;29.73;;;8.00;99.90;;;;;;4950111;28;20082;-64
2021/10/26 01:29:00;;;;;;;42.50;31.00;;;8.00;99.90;;;;;;4964964;28;20081;-67
2021/10/26 01:31:31;;;;;;;49.30;31.85;;;8.00;99.90;;;;;;4984079;28;20088;-66
2021/10/26 01:34:07;;;;;;;49.33;31.00;;;7.90;99.90;;;;;;4962791;28;20054;-64
2021/10/26 01:36:36;;;;;;;63.38;32.95;;;7.90;99.90;;;;;;4973704;28;20051;-69
2021/10/26 01:39:03;;;;;;;47.35;30.38;;;7.90;99.90;;;;;;4961921;28;20043;-66
2021/10/26 01:41:33;;;;;;;47.20;29.50;;;7.90;99.90;;;;;;4960025;28;20043;-65
2021/10/26 01:44:00;;;;;;;41.47;30.23;;;7.90;99.90;;;;;;4944012;28;20047;-67
2021/10/26 01:46:27;;;;;;;42.75;29.60;;;7.90;99.90;;;;;;4959955;28;20062;-65
2021/10/26 01:48:54;;;;;;;47.90;31.98;;;7.90;99.90;;;;;;4961624;28;20369;-67
2021/10/26 01:51:21;;;;;;;46.33;30.90;;;7.90;99.90;;;;;;4944138;28;20098;-65
2021/10/26 01:53:49;;;;;;;43.83;31.13;;;8.00;99.90;;;;;;4945654;28;20716;-66
2021/10/26 01:56:16;;;;;;;45.70;29.92;;;8.00;99.90;;;;;;4941084;28;20082;-66
2021/10/26 01:59:09;;;;;;;45.80;31.40;;;8.00;99.90;;;;;;4941914;28;20047;-67
2021/10/26 02:01:41;;;;;;;44.40;31.85;;;8.00;99.90;;;;;;4958857;28;20059;-67
2021/10/26 02:04:18;;;;;;;40.67;28.10;;;8.00;99.90;;;;;;4958043;28;20053;-68
2021/10/26 02:06:44;;;;;;;48.47;29.15;;;8.00;99.90;;;;;;4952037;28;20062;-64
2021/10/26 02:09:12;;;;;;;40.15;29.42;;;8.00;99.90;;;;;;4959550;28;20119;-66
2021/10/26 02:11:40;;;;;;;43.65;27.95;;;8.00;99.90;;;;;;4958301;28;20098;-68
2021/10/26 02:14:07;;;;;;;38.17;28.13;;;8.00;99.90;;;;;;4957794;28;20055;-64
2021/10/26 02:16:34;;;;;;;38.88;27.63;;;8.00;99.90;;;;;;4961921;28;20057;-70
2021/10/26 02:19:02;;;;;;;43.13;29.60;;;7.90;99.90;;;;;;4972846;28;20065;-66
2021/10/26 02:21:29;;;;;;;39.83;28.23;;;7.90;99.90;;;;;;4966571;28;20651;-65
2021/10/26 02:23:57;;;;;;;43.28;28.88;;;7.90;99.90;;;;;;4968776;28;20070;-65
2021/10/26 02:26:25;;;;;;;44.65;28.05;;;7.90;99.90;;;;;;4967244;28;20043;-64
2021/10/26 02:28:52;;;;;;;45.45;28.38;;;7.90;99.90;;;;;;4966678;28;20054;-68
2021/10/26 02:31:19;;;;;;;42.88;29.75;;;7.90;99.90;;;;;;4982084;28;20063;-67
2021/10/26 02:33:46;;;;;;;37.78;26.90;;;7.90;99.90;;;;;;4968604;28;20067;-68
2021/10/26 02:36:13;;;;;;;49.45;29.40;;;7.90;99.90;;;;;;4969274;28;20429;-65
2021/10/26 02:38:41;;;;;;;43.40;29.85;;;7.90;99.90;;;;;;4980738;28;20058;-69
2021/10/26 02:41:08;;;;;;;41.83;29.92;;;7.90;99.90;;;;;;4966872;28;20134;-67
2021/10/26 02:43:35;;;;;;;38.40;25.45;;;8.00;99.90;;;;;;4982600;28;20492;-66
2021/10/26 02:46:03;;;;;;;45.45;29.05;;;8.00;99.90;;;;;;4980640;28;20051;-64
2021/10/26 02:48:30;;;;;;;42.13;29.58;;;7.90;99.90;;;;;;4982730;28;20101;-72
2021/10/26 02:50:58;;;;;;;41.10;30.60;;;8.00;99.90;;;;;;4968404;28;20190;-65
2021/10/26 02:53:26;;;;;;;38.08;25.80;;;8.00;99.90;;;;;;4981404;28;20117;-69
2021/10/26 02:55:53;;;;;;;42.20;29.67;;;8.00;99.90;;;;;;4968964;28;20051;-65
2021/10/26 02:58:21;;;;;;;38.20;28.17;;;8.00;99.90;;;;;;4979545;28;20050;-66
2021/10/26 03:00:48;;;;;;;38.20;27.95;;;8.00;99.90;;;;;;4983755;28;20045;-64
2021/10/26 03:03:18;;;;;;;40.60;26.67;;;8.00;99.90;;;;;;4982489;28;20043;-65
2021/10/26 03:05:47;;;;;;;37.92;25.58;;;8.00;99.90;;;;;;4982929;28;20145;-67
2021/10/26 03:08:15;;;;;;;41.28;31.65;;;8.00;99.90;;;;;;4964651;28;20069;-65
2021/10/26 03:10:43;;;;;;;40.35;30.38;;;8.00;99.90;;;;;;4982567;28;20075;-67
2021/10/26 03:13:13;;;;;;;40.42;29.23;;;8.00;99.90;;;;;;4967761;28;20070;-65
2021/10/26 03:15:40;;;;;;;38.10;25.50;;;8.00;99.90;;;;;;4981810;28;20113;-67
2021/10/26 03:18:14;;;;;;;30.67;25.33;;;8.00;99.90;;;;;;4948020;28;20130;-64
2021/10/26 03:20:42;;;;;;;36.42;28.08;;;8.00;99.90;;;;;;4947180;28;20040;-66
2021/10/26 03:23:10;;;;;;;33.00;26.75;;;8.00;99.90;;;;;;4963402;28;20135;-67
2021/10/26 03:25:38;;;;;;;34.42;25.23;;;8.00;99.90;;;;;;4961152;28;20085;-67
2021/10/26 03:28:07;;;;;;;43.03;28.95;;;8.00;99.90;;;;;;4945714;28;20500;-66
2021/10/26 03:30:34;;;;;;;38.30;27.83;;;8.00;99.90;;;;;;4947702;28;20049;-65
2021/10/26 03:33:15;;;;;;;34.08;26.20;;;8.00;99.90;;;;;;4954898;28;20049;-67
2021/10/26 03:35:50;;;;;;;40.13;30.02;;;8.00;99.90;;;;;;4963674;28;20380;-68
2021/10/26 03:38:17;;;;;;;41.00;27.52;;;8.10;99.90;;;;;;4979637;28;20179;-66
2021/10/26 03:40:44;;;;;;;44.38;25.95;;;8.10;99.90;;;;;;4967205;28;20548;-64
2021/10/26 03:43:12;;;;;;;36.72;27.83;;;8.00;99.90;;;;;;4980416;28;20073;-69
2021/10/26 03:45:39;;;;;;;38.92;26.83;;;8.10;99.90;;;;;;4965652;28;20106;-65
2021/10/26 03:48:08;;;;;;;37.42;26.80;;;8.10;99.90;;;;;;4978453;28;20057;-67
2021/10/26 03:50:38;;;;;;;36.88;26.85;;;8.10;99.90;;;;;;4966092;28;20082;-65
2021/10/26 03:53:06;;;;;;;34.53;25.55;;;8.10;99.90;;;;;;4980589;28;20043;-66
2021/10/26 03:55:33;;;;;;;36.22;26.35;;;8.10;99.90;;;;;;4981577;28;20101;-66
2021/10/26 03:58:06;;;;;;;35.78;24.20;;;8.10;99.90;;;;;;4977826;28;20047;-68
2021/10/26 04:00:34;;;;;;;32.03;24.33;;;8.10;99.90;;;;;;4962720;28;20098;-67
2021/10/26 04:03:21;;;;;;;36.17;26.20;;;8.10;99.90;;;;;;4954804;28;20047;-65
2021/10/26 04:10:55;;;;;;;32.22;24.58;;;8.00;99.90;;;;;;4960524;28;20047;-66
2021/10/26 04:13:25;;;;;;;36.75;25.10;;;8.00;99.90;;;;;;4957306;28;20055;-65
2021/10/26 04:15:54;;;;;;;28.98;23.42;;;8.00;99.90;;;;;;4963214;28;20054;-64
2021/10/26 04:18:23;;;;;;;29.30;24.02;;;8.00;99.90;;;;;;4943998;28;20142;-64
2021/10/26 04:20:51;;;;;;;29.17;22.05;;;8.10;99.90;;;;;;4945997;28;20055;-64
2021/10/26 04:23:18;;;;;;;29.25;22.05;;;8.10;99.90;;;;;;4944968;28;20054;-64
2021/10/26 04:25:45;;;;;;;34.03;23.85;;;8.10;99.90;;;;;;4945958;28;20067;-70
2021/10/26 04:28:12;;;;;;;32.38;24.92;;;8.10;99.90;;;;;;4959541;28;20074;-70
2021/10/26 04:30:40;;;;;;;28.83;22.90;;;8.10;99.90;;;;;;4961252;28;20051;-69
2021/10/26 04:33:08;;;;;;;29.63;23.02;;;8.10;99.90;;;;;;4945291;28;20665;-66
2021/10/26 04:35:35;;;;;;;26.27;21.60;;;8.10;99.90;;;;;;4951018;28;20070;-74
2021/10/26 04:38:03;;;;;;;30.83;22.73;;;8.10;99.90;;;;;;4950072;28;20051;-69
2021/10/26 04:40:31;;;;;;;27.45;20.48;;;8.10;99.90;;;;;;4964965;28;20128;-72
2021/10/26 04:43:04;;;;;;;33.50;23.95;;;8.10;99.90;;;;;;4958970;28;20047;-65
2021/10/26 04:45:33;;;;;;;27.65;21.48;;;8.10;99.90;;;;;;4964466;28;20043;-65
2021/10/26 04:48:02;;;;;;;34.30;23.63;;;8.10;99.90;;;;;;4944275;28;20122;-64
2021/10/26 04:50:32;;;;;;;31.42;21.10;;;8.10;99.90;;;;;;4950715;28;20501;-66
2021/10/26 04:52:59;;;;;;;29.48;22.60;;;8.10;99.90;;;;;;4947397;28;20456;-66
2021/10/26 04:55:26;;;;;;;37.30;23.45;;;8.10;99.90;;;;;;4948503;28;20101;-63
2021/10/26 04:57:53;;;;;;;33.63;23.63;;;8.10;99.90;;;;;;4946963;28;20058;-65
2021/10/26 05:00:22;;;;;;;29.35;21.48;;;8.10;99.90;;;;;;4949516;28;20531;-69
2021/10/26 05:02:50;;;;;;;29.88;23.52;;;8.10;99.90;;;;;;4974321;28;20165;-67
2021/10/26 05:05:17;;;;;;;31.63;26.38;;;8.10;99.90;;;;;;4966606;28;20158;-65
2021/10/26 05:07:45;;;;;;;37.17;24.90;;;8.10;99.90;;;;;;4966114;28;20101;-63
2021/10/26 05:10:13;;;;;;;29.35;23.92;;;8.10;99.90;;;;;;4982324;28;20062;-64
2021/10/26 05:12:42;;;;;;;29.23;22.93;;;8.10;99.90;;;;;;4964956;28;20069;-69
2021/10/26 05:15:18;;;;;;;34.50;23.80;;;8.20;99.90;;;;;;4948566;28;20178;-66
2021/10/26 05:18:06;;;;;;;34.50;23.85;;;8.20;99.90;;;;;;4949135;28;20046;-64
2021/10/26 05:20:53;;;;;;;33.47;23.75;;;8.10;99.90;;;;;;4944746;28;20049;-65
2021/10/26 05:23:44;;;;;;;35.78;23.08;;;8.20;99.90;;;;;;4950075;28;20522;-68
2021/10/26 05:26:23;;;;;;;32.17;22.63;;;8.20;99.90;;;;;;4959993;28;20471;-64
2021/10/26 05:28:50;;;;;;;32.88;24.42;;;8.20;99.90;;;;;;4977737;28;20046;-70
2021/10/26 05:31:18;;;;;;;37.00;23.83;;;8.30;99.90;;;;;;4966257;28;20054;-68
2021/10/26 05:33:46;;;;;;;28.08;23.48;;;8.30;99.90;;;;;;4987974;28;20076;-64
2021/10/26 05:36:15;;;;;;;28.92;21.67;;;8.30;99.90;;;;;;4979637;28;20042;-66
2021/10/26 05:38:42;;;;;;;28.90;20.60;;;8.30;99.90;;;;;;4969458;28;20471;-64
2021/10/26 05:41:11;;;;;;;28.63;20.88;;;8.40;99.90;;;;;;4965263;28;20169;-64
2021/10/26 05:43:41;;;;;;;34.13;22.63;;;8.40;99.90;;;;;;4970072;28;20435;-69
2021/10/26 05:46:08;;;;;;;40.05;24.92;;;8.40;99.90;;;;;;4980003;28;20120;-65
2021/10/26 05:48:35;;;;;;;36.28;22.30;;;8.40;99.90;;;;;;4969118;28;20407;-63
2021/10/26 05:51:04;;;;;;;32.63;24.17;;;8.40;99.90;;;;;;4968409;28;20142;-64
2021/10/26 05:53:32;;;;;;;34.40;25.20;;;8.50;99.90;;;;;;4968687;28;20516;-65
2021/10/26 05:56:00;;;;;;;30.48;22.42;;;8.50;99.90;;;;;;4972989;28;20334;-64
2021/10/26 05:58:28;;;;;;;37.10;27.02;;;8.50;99.90;;;;;;4971896;28;20048;-65
2021/10/26 06:00:55;;;;;;;28.45;22.45;;;8.50;99.90;;;;;;4963223;28;20133;-64
2021/10/26 06:03:22;;;;;;;38.38;24.02;;;8.50;99.90;;;;;;4950233;28;20160;-64
2021/10/26 06:05:49;;;;;;;30.58;23.95;;;8.60;99.90;;;;;;4965966;28;20127;-64
2021/10/26 06:08:16;;;;;;;36.72;26.00;;;8.60;99.90;;;;;;4963023;28;20057;-64
2021/10/26 06:10:45;;;;;;;41.08;24.42;;;8.70;99.90;;;;;;4954653;28;20063;-63
2021/10/26 06:13:14;;;;;;;34.25;25.02;;;8.70;99.90;;;;;;4963103;28;20043;-64
2021/10/26 06:15:42;;;;;;;43.85;26.75;;;8.70;99.90;;;;;;4965765;28;20067;-67
2021/10/26 06:18:15;;;;;;;39.10;26.95;;;8.70;99.90;;;;;;4963277;28;20157;-68
2021/10/26 06:20:45;;;;;;;43.63;30.48;;;8.70;99.90;;;;;;4951506;28;20047;-67
2021/10/26 06:23:13;;;;;;;37.92;27.42;;;8.80;99.90;;;;;;4950565;28;20055;-64
2021/10/26 06:25:40;;;;;;;41.33;30.45;;;8.80;99.90;;;;;;4967063;28;20468;-67
2021/10/26 06:28:16;;;;;;;35.67;24.58;;;8.80;99.90;;;;;;4947450;28;20098;-67
2021/10/26 06:30:44;;;;;;;33.70;23.77;;;8.80;99.90;;;;;;4963081;28;20130;-64
2021/10/26 06:33:11;;;;;;;28.95;21.67;;;8.80;99.90;;;;;;4962787;28;20073;-64
2021/10/26 06:35:42;;;;;;;29.42;22.00;;;8.80;99.90;;;;;;4962930;28;20107;-66
2021/10/26 06:38:09;;;;;;;26.42;20.63;;;8.90;99.90;;;;;;4981656;28;20057;-65
2021/10/26 06:40:37;;;;;;;27.23;22.45;;;8.90;99.90;;;;;;4975721;28;20089;-73
2021/10/26 06:43:24;;;;;;;34.42;20.00;;;8.90;99.90;;;;;;4969279;28;20069;-64
2021/10/26 06:46:10;;;;;;;24.23;19.15;;;8.90;99.90;;;;;;4947400;28;20046;-66
2021/10/26 06:48:55;;;;;;;24.83;18.75;;;8.90;99.90;;;;;;4951021;28;20476;-64
2021/10/26 06:51:41;;;;;;;26.52;20.35;;;8.90;99.90;;;;;;4945481;28;20062;-64
2021/10/26 06:54:27;;;;;;;27.92;21.20;;;8.90;99.90;;;;;;4948152;28;20057;-69
2021/10/26 06:57:12;;;;;;;24.90;19.63;;;8.90;99.90;;;;;;4958445;28;20507;-67
2021/10/26 07:00:09;;;;;;;28.55;19.42;;;9.00;99.90;;;;;;4955281;28;20463;-65
2021/10/26 07:03:09;;;;;;;26.77;19.50;;;9.00;99.90;;;;;;4955270;28;20043;-68
2021/10/26 07:06:14;;;;;;;30.23;22.15;;;9.00;99.90;;;;;;4997886;28;20050;-66
2021/10/26 07:09:00;;;;;;;25.58;19.77;;;9.00;99.90;;;;;;5002510;28;20049;-66
2021/10/26 07:11:30;;;;;;;27.90;20.05;;;9.00;99.90;;;;;;4979180;28;20042;-66
2021/10/26 07:14:03;;;;;;;27.45;19.80;;;9.00;99.90;;;;;;4978324;28;20133;-71
2021/10/26 07:16:31;;;;;;;24.90;20.33;;;9.10;99.90;;;;;;4971374;28;20074;-65
2021/10/26 07:18:58;;;;;;;28.33;21.48;;;9.10;99.90;;;;;;4966703;28;20047;-70
2021/10/26 07:21:28;;;;;;;27.42;21.15;;;9.00;99.90;;;;;;4964260;28;20094;-67
2021/10/26 07:24:14;;;;;;;26.98;20.52;;;9.00;99.90;;;;;;4964223;28;20181;-64
2021/10/26 07:26:55;;;;;;;24.45;20.65;;;9.00;99.90;;;;;;4971897;28;20171;-65
2021/10/26 07:29:24;;;;;;;26.35;19.95;;;9.00;99.90;;;;;;4961617;28;20134;-65
2021/10/26 07:31:51;;;;;;;25.95;20.27;;;9.00;99.90;;;;;;4959900;28;20055;-70
2021/10/26 07:34:18;;;;;;;22.50;18.92;;;9.00;99.90;;;;;;4959854;28;20480;-65
2021/10/26 07:36:46;;;;;;;27.13;19.75;;;9.00;99.90;;;;;;4945131;28;20062;-66
2021/10/26 07:39:43;;;;;;;25.52;20.40;;;9.00;99.90;;;;;;4961501;28;20051;-66
2021/10/26 07:42:06;;;;;;;26.75;20.95;;;9.00;99.90;;;;;;4959153;28;20047;-65
2021/10/26 07:44:52;;;;;;;27.48;21.30;;;9.00;99.90;;;;;;4946025;28;20061;-65
2021/10/26 07:47:23;;;;;;;28.95;21.80;;;9.10;99.90;;;;;;4948384;28;20055;-68
2021/10/26 07:49:52;;;;;;;27.00;21.13;;;9.00;99.90;;;;;;4960364;28;20122;-65
2021/10/26 07:52:23;;;;;;;26.55;21.95;;;9.10;99.90;;;;;;4965108;28;20077;-66
2021/10/26 07:55:15;;;;;;;28.90;20.17;;;9.10;99.90;;;;;;4965834;28;20071;-65
2021/10/26 07:57:54;;;;;;;26.40;21.52;;;9.10;99.90;;;;;;4979952;28;20063;-65
2021/10/26 08:00:23;;;;;;;;;;;9.10;99.90;;;;;;4979862;28;20054;-67
2021/10/26 08:02:58;;;;;;;25.17;19.50;;;9.10;99.90;;;;;;4964626;28;19922;-67
2021/10/26 08:05:44;;;;;;;30.40;20.40;;;9.10;99.90;;;;;;4964325;28;20061;-65
2021/10/26 08:08:11;;;;;;;25.70;21.10;;;9.10;99.90;;;;;;4977645;28;20440;-68
2021/10/26 08:10:38;;;;;;;25.40;21.00;;;9.10;99.90;;;;;;4946455;28;20178;-64
2021/10/26 08:13:05;;;;;;;25.55;19.20;;;9.10;99.90;;;;;;4960766;28;20058;-64
2021/10/26 08:15:32;;;;;;;23.02;18.83;;;9.10;99.90;;;;;;4947675;28;20135;-64
2021/10/26 08:17:59;;;;;;;24.42;18.35;;;9.20;99.90;;;;;;4972438;28;20059;-66
2021/10/26 08:20:27;;;;;;;20.10;16.98;;;9.10;99.90;;;;;;4965372;28;20054;-64
2021/10/26 08:22:54;;;;;;;19.17;15.45;;;9.20;99.90;;;;;;4964936;28;20047;-64
2021/10/26 08:25:30;;;;;;;17.55;14.55;;;9.20;99.90;;;;;;4962280;28;20071;-68
2021/10/26 08:27:59;;;;;;;20.13;15.25;;;9.20;99.90;;;;;;4958478;28;20054;-66
2021/10/26 08:30:32;;;;;;;15.60;13.70;;;9.20;99.90;;;;;;4960505;28;20054;-66
2021/10/26 08:33:17;;;;;;;18.35;14.25;;;9.20;99.90;;;;;;4943087;28;20123;-68
2021/10/26 08:35:47;;;;;;;17.05;14.52;;;9.20;99.90;;;;;;4945494;28;20051;-64
2021/10/26 08:38:15;;;;;;;22.00;14.75;;;9.20;99.90;;;;;;4941910;28;20520;-66
2021/10/26 08:40:58;;;;;;;14.35;12.02;;;9.20;99.90;;;;;;4962532;28;20084;-64
2021/10/26 08:43:26;;;;;;;11.98;10.32;;;9.30;99.90;;;;;;4944158;28;20050;-66
2021/10/26 08:45:54;;;;;;;13.18;10.63;;;9.30;99.90;;;;;;4960758;28;20078;-63
2021/10/26 08:48:25;;;;;;;12.40;9.63;;;9.30;99.90;;;;;;4957972;28;20049;-68
2021/10/26 08:50:56;;;;;;;11.57;10.38;;;9.40;99.90;;;;;;4947349;28;20469;-68
2021/10/26 08:53:30;;;;;;;10.10;9.10;;;9.40;99.90;;;;;;4960769;28;20047;-67
2021/10/26 08:55:59;;;;;;;10.85;9.25;;;9.50;99.90;;;;;;4943728;28;20152;-71
2021/10/26 08:58:45;;;;;;;9.18;7.90;;;9.50;99.90;;;;;;4936879;28;20502;-65
2021/10/26 09:01:15;;;;;;;10.68;9.10;;;9.50;99.90;;;;;;4962560;28;20058;-69
2021/10/26 09:03:51;;;;;;;10.48;8.75;;;9.60;99.90;;;;;;4959929;28;20784;-66
2021/10/26 09:06:31;;;;;;;12.35;8.63;;;9.60;99.90;;;;;;4944424;28;20746;-65
2021/10/26 09:09:02;;;;;;;11.23;8.77;;;9.70;99.90;;;;;;4945676;28;20189;-65
2021/10/26 09:18:07;;;;;;;8.82;7.93;;;9.80;99.90;;;;;;4943151;28;20055;-67
2021/10/26 09:20:54;;;;;;;8.73;7.85;;;9.90;99.90;;;;;;4945388;28;20672;-67
2021/10/26 09:23:47;;;;;;;9.68;8.52;;;9.90;99.90;;;;;;4959610;28;20051;-64
2021/10/26 09:26:26;;;;;;;8.68;7.72;;;9.90;99.90;;;;;;4963344;28;20062;-65
2021/10/26 09:28:57;;;;;;;9.70;8.75;;;9.90;99.90;;;;;;4957883;28;20047;-64
2021/10/26 09:31:29;;;;;;;10.30;8.90;;;10.00;99.90;;;;;;4947647;28;20106;-65
2021/10/26 09:33:59;;;;;;;10.73;7.80;;;10.00;99.90;;;;;;4944716;28;20119;-65
2021/10/26 09:36:28;;;;;;;8.48;7.57;;;10.00;99.90;;;;;;4949174;28;20062;-65
2021/10/26 09:39:06;;;;;;;8.43;7.40;;;10.00;99.90;;;;;;4965411;28;20368;-67
2021/10/26 09:41:36;;;;;;;11.02;9.27;;;10.00;99.90;;;;;;4964825;28;20168;-65
2021/10/26 09:44:34;;;;;;;12.00;7.38;;;10.00;99.90;;;;;;4977084;28;20082;-65
2021/10/26 09:47:28;;;;;;;8.73;7.82;;;10.00;99.90;;;;;;4979518;28;20687;-67
2021/10/26 09:50:00;;;;;;;8.93;8.02;;;10.00;99.90;;;;;;4955623;28;20101;-65
2021/10/26 09:52:43;;;;;;;9.90;8.23;;;9.90;99.90;;;;;;4953775;28;20051;-65
2021/10/26 09:55:22;;;;;;;9.15;7.28;;;9.90;99.90;;;;;;4961313;28;20106;-64
2021/10/26 09:57:51;;;;;;;9.45;8.52;;;9.90;99.90;;;;;;4945630;28;20039;-67
2021/10/26 10:00:25;;;;;;;10.35;9.25;;;10.00;99.90;;;;;;4941966;28;20078;-66
2021/10/26 10:03:21;;;;;;;11.80;10.60;;;10.00;99.90;;;;;;4945257;28;20051;-66
2021/10/26 10:05:59;;;;;;;12.95;9.20;;;9.90;99.90;;;;;;4945650;28;20118;-67
2021/10/26 10:08:33;;;;;;;11.02;9.32;;;10.00;99.90;;;;;;4944177;28;20051;-66
2021/10/26 10:11:17;;;;;;;10.98;9.38;;;9.90;99.90;;;;;;4946002;28;20083;-67
2021/10/26 10:13:53;;;;;;;16.35;11.00;;;9.80;99.90;;;;;;4946081;28;20094;-68
2021/10/26 10:16:22;;;;;;;14.13;11.30;;;9.80;99.90;;;;;;4942310;28;20162;-67
2021/10/26 10:18:50;;;;;;;11.50;9.90;;;9.80;99.90;;;;;;4960425;28;20050;-66
2021/10/26 10:21:24;;;;;;;10.40;8.60;;;9.80;99.90;;;;;;4944723;28;20051;-66
2021/10/26 10:23:52;;;;;;;9.48;8.55;;;9.80;99.90;;;;;;4940711;28;20641;-63
2021/10/26 10:26:24;;;;;;;13.95;9.75;;;9.80;99.90;;;;;;4946490;28;20078;-63
2021/10/26 10:28:53;;;;;;;8.27;7.43;;;9.80;99.90;;;;;;4945620;28;20110;-66
2021/10/26 10:31:23;;;;;;;9.93;8.93;;;9.80;99.90;;;;;;4954073;28;20074;-64
2021/10/26 10:33:50;;;;;;;10.75;8.73;;;9.70;99.90;;;;;;4944056;28;20051;-67
2021/10/26 10:36:20;;;;;;;11.85;8.50;;;9.70;99.90;;;;;;4966864;28;20447;-66
2021/10/26 10:38:48;;;;;;;10.20;8.70;;;9.70;99.90;;;;;;4949333;28;20113;-63
2021/10/26 10:41:35;;;;;;;8.90;7.85;;;9.70;99.90;;;;;;4955825;28;20054;-65
2021/10/26 10:44:19;;;;;;;11.82;10.25;;;9.70;99.90;;;;;;4964307;28;20106;-63
2021/10/26 10:46:52;;;;;;;11.25;9.43;;;9.70;99.90;;;;;;4970115;28;20067;-63
2021/10/26 10:49:36;;;;;;;10.38;8.65;;;9.70;99.90;;;;;;4956548;28;20059;-66
2021/10/26 10:52:09;;;;;;;9.73;8.73;;;9.70;99.90;;;;;;4952016;28;20062;-64
2021/10/26 10:54:39;;;;;;;9.57;7.57;;;9.70;99.90;;;;;;4949682;28;20043;-64
2021/10/26 10:57:24;;;;;;;;;;;9.80;99.90;;;;;;4950602;28;20117;-63
2021/10/26 10:59:53;;;;;;;8.45;7.55;;;9.80;99.90;;;;;;4964733;28;19999;-64
2021/10/26 11:02:22;;;;;;;8.27;7.20;;;9.80;99.90;;;;;;4963863;28;20046;-65
2021/10/26 11:04:51;;;;;;;8.20;7.25;;;9.90;99.90;;;;;;4958651;28;20660;-65
2021/10/26 11:07:49;;;;;;;10.27;6.03;;;9.90;99.90;;;;;;4968374;28;20138;-63
2021/10/26 11:10:19;;;;;;;11.90;9.05;;;10.00;99.90;;;;;;4947845;28;20118;-63
2021/10/26 11:12:46;;;;;;;7.93;6.97;;;10.00;99.90;;;;;;4946973;28;20042;-64
2021/10/26 11:15:20;;;;;;;10.02;7.65;;;10.10;99.90;;;;;;4946929;28;20476;-63
2021/10/26 11:17:52;;;;;;;9.18;7.13;;;10.00;99.90;;;;;;4949231;28;20051;-63
2021/10/26 11:20:29;;;;;;;10.88;7.22;;;10.10;99.90;;;;;;4962458;28;20698;-64
2021/10/26 11:23:04;;;;;;;9.05;8.02;;;10.10;99.90;;;;;;4956542;28;20051;-64
2021/10/26 11:25:37;;;;;;;9.43;7.40;;;10.00;99.90;;;;;;4950443;28;20109;-67
2021/10/26 11:28:15;;;;;;;11.65;7.70;;;10.00;99.90;;;;;;4941731;28;20472;-65
2021/10/26 11:30:42;;;;;;;9.18;7.13;;;10.00;99.90;;;;;;4949825;28;20061;-64
2021/10/26 11:33:15;;;;;;;12.25;9.57;;;10.00;99.90;;;;;;4964769;28;20043;-68
2021/10/26 11:35:59;;;;;;;13.32;8.15;;;10.00;99.90;;;;;;4964251;28;20047;-67
2021/10/26 11:38:29;;;;;;;10.63;7.57;;;10.10;99.90;;;;;;4944759;28;20464;-64
2021/10/26 11:41:06;;;;;;;11.25;9.23;;;10.10;99.90;;;;;;4947400;28;20472;-69
2021/10/26 11:43:56;;;;;;;12.77;7.63;;;10.20;99.90;;;;;;4946429;28;20039;-67
2021/10/26 11:46:32;;;;;;;9.65;7.72;;;10.20;99.90;;;;;;4947205;28;20082;-67
2021/10/26 11:49:23;;;;;;;10.85;7.43;;;10.20;99.90;;;;;;4949649;28;20051;-70
2021/10/26 11:52:08;;;;;;;8.77;7.90;;;10.20;99.90;;;;;;4948979;28;20408;-67
2021/10/26 11:54:50;;;;;;;8.60;7.50;;;10.10;99.90;;;;;;4974737;28;20101;-69
2021/10/26 11:57:22;;;;;;;9.27;7.20;;;10.10;99.90;;;;;;4981726;28;20077;-63
2021/10/26 12:00:10;;;;;;;10.05;7.47;;;10.00;99.90;;;;;;4967161;28;20511;-64
2021/10/26 12:02:39;;;;;;;10.00;7.13;;;10.10;99.90;;;;;;4967808;28;20150;-67
2021/10/26 12:05:20;;;;;;;10.63;7.68;;;10.00;99.90;;;;;;4979085;28;20109;-65
2021/10/26 12:07:49;;;;;;;6.95;6.10;;;10.00;99.90;;;;;;4969633;28;20070;-67
2021/10/26 12:10:20;;;;;;;9.13;7.18;;;10.00;99.90;;;;;;4966579;28;20869;-69
2021/10/26 12:12:47;;;;;;;12.43;8.60;;;10.00;99.90;;;;;;4968020;28;20074;-67
2021/10/26 12:15:15;;;;;;;10.30;7.90;;;9.90;99.90;;;;;;4969483;28;20050;-65
2021/10/26 12:17:42;;;;;;;13.82;8.82;;;9.90;99.90;;;;;;4954231;28;20041;-63
2021/10/26 12:20:24;;;;;;;10.20;8.20;;;9.90;99.90;;;;;;4948362;28;20047;-65
2021/10/26 12:23:05;;;;;;;17.77;10.00;;;9.90;99.90;;;;;;4947957;28;20152;-73
2021/10/26 12:25:48;;;;;;;13.75;9.57;;;9.90;99.90;;;;;;4973123;28;20047;-64
2021/10/26 12:28:15;;;;;;;15.00;10.25;;;9.80;99.90;;;;;;4963238;28;20503;-71
2021/10/26 12:30:46;;;;;;;16.70;10.95;;;9.90;99.90;;;;;;4968556;28;20074;-65
2021/10/26 12:33:28;;;;;;;25.42;11.50;;;9.90;99.90;;;;;;4965735;28;20129;-65
2021/10/26 12:36:05;;;;;;;20.95;12.20;;;9.90;99.90;;;;;;4953727;28;20121;-76
2021/10/26 12:38:43;;;;;;;15.48;11.68;;;9.90;99.90;;;;;;4946715;28;20632;-65
2021/10/26 12:41:16;;;;;;;19.00;11.95;;;9.90;99.90;;;;;;4962969;28;20078;-63
2021/10/26 12:43:58;;;;;;;18.15;12.90;;;9.80;99.90;;;;;;4946828;28;20051;-64
2021/10/26 12:46:26;;;;;;;21.20;12.60;;;9.80;99.90;;;;;;4965986;28;20443;-64
2021/10/26 12:49:15;;;;;;;25.17;13.43;;;9.90;99.90;;;;;;4968020;28;20097;-66
2021/10/26 12:51:44;;;;;;;21.63;13.40;;;9.90;99.90;;;;;;4979521;28;20062;-68
2021/10/26 12:54:17;;;;;;;21.02;14.10;;;9.90;99.90;;;;;;4974966;28;20480;-73
2021/10/26 12:56:51;;;;;;;18.83;12.75;;;9.90;99.90;;;;;;4965982;28;20082;-72
2021/10/26 12:59:23;;;;;;;19.75;14.32;;;9.90;99.90;;;;;;4964397;28;20058;-65
2021/10/26 13:01:59;;;;;;;29.35;15.88;;;9.90;99.90;;;;;;4965604;28;20066;-65
2021/10/26 13:04:28;;;;;;;21.05;14.00;;;9.90;99.90;;;;;;4963342;28;20053;-68
2021/10/26 13:07:07;;;;;;;22.00;14.38;;;9.90;99.90;;;;;;4966475;28;20054;-66
2021/10/26 13:09:42;;;;;;;22.48;14.10;;;9.90;99.90;;;;;;4967987;28;20053;-63
2021/10/26 13:12:25;;;;;;;19.75;15.15;;;9.90;99.90;;;;;;4963246;28;20118;-65
2021/10/26 13:15:02;;;;;;;21.13;13.23;;;9.90;99.90;;;;;;4948016;28;20078;-64
2021/10/26 13:17:33;;;;;;;21.92;14.27;;;9.90;99.90;;;;;;4946568;28;20059;-70